Time,TemperatureF,DewpointF,PressureIn,WindDirection,WindDirectionDegrees,WindSpeedMPH,WindSpeedGustMPH,Humidity,HourlyPrecipIn,Conditions,Clouds,dailyrainin,SoftwareType,DateUTC
2013-01-12 00:00:00,62.2,59.8,30.14,SW,224,1.0,1.0,92,0.00,,,0.10,Wunderground v.1.15,2013-01-12 05:00:00,
2013-01-12 00:10:00,62.0,59.6,30.14,WSW,240,0.0,0.0,92,0.00,,,0.00,Wunderground v.1.15,2013-01-12 05:10:00,
2013-01-12 00:20:00,61.8,59.5,30.14,WSW,253,0.0,0.0,92,0.00,,,0.00,Wunderground v.1.15,2013-01-12 05:20:00,
2013-01-12 00:30:00,61.6,59.3,30.14,West,261,0.0,0.0,92,0.00,,,0.00,Wunderground v.1.15,2013-01-12 05:30:00,
2013-01-12 00:40:00,61.5,59.2,30.14,West,261,0.0,0.0,92,0.00,,,0.00,Wunderground v.1.15,2013-01-12 05:40:00,
2013-01-12 00:50:00,61.6,59.3,30.13,WSW,254,0.0,1.0,92,0.00,,,0.00,Wunderground v.1.15,2013-01-12 05:50:00,
2013-01-12 01:00:00,61.6,59.3,30.13,SW,232,0.0,0.0,92,0.00,,,0.00,Wunderground v.1.15,2013-01-12 06:00:00,
2013-01-12 01:10:00,61.8,59.5,30.13,SW,222,1.0,1.0,92,0.00,,,0.00,Wunderground v.1.15,2013-01-12 06:10:00,
2013-01-12 01:20:00,61.8,59.5,30.13,SSW,213,1.0,1.0,92,0.00,,,0.00,Wunderground v.1.15,2013-01-12 06:20:00,
2013-01-12 01:30:00,61.8,59.5,30.13,West,264,1.0,1.0,92,0.00,,,0.00,Wunderground v.1.15,2013-01-12 06:30:00,
2013-01-12 01:40:00,61.5,59.2,30.13,West,271,1.0,1.0,92,0.00,,,0.00,Wunderground v.1.15,2013-01-12 06:40:00,
2013-01-12 01:50:00,61.3,59.0,30.13,West,264,0.0,1.0,92,0.00,,,0.00,Wunderground v.1.15,2013-01-12 06:50:00,
2013-01-12 02:00:00,61.4,59.1,30.13,West,260,1.0,1.0,92,0.00,,,0.00,Wunderground v.1.15,2013-01-12 07:00:00,
2013-01-12 02:10:00,61.3,59.0,30.13,West,264,1.0,1.0,92,0.00,,,0.00,Wunderground v.1.15,2013-01-12 07:10:00,
2013-01-12 02:20:00,60.9,58.9,30.13,SW,234,0.0,0.0,93,0.00,,,0.00,Wunderground v.1.15,2013-01-12 07:20:00,
2013-01-12 02:30:00,60.7,58.4,30.13,WSW,257,1.0,1.0,92,0.00,,,0.00,Wunderground v.1.15,2013-01-12 07:30:00,
2013-01-12 02:40:00,60.9,58.6,30.13,West,259,0.0,0.0,92,0.00,,,0.00,Wunderground v.1.15,2013-01-12 07:40:00,
2013-01-12 02:50:00,61.0,58.7,30.13,West,261,0.0,0.0,92,0.00,,,0.00,Wunderground v.1.15,2013-01-12 07:50:00,
2013-01-12 03:00:00,60.9,58.6,30.13,West,265,0.0,0.0,92,0.00,,,0.01,Wunderground v.1.15,2013-01-12 08:00:00,
2013-01-12 03:10:00,60.9,58.3,30.13,WSW,254,0.0,0.0,91,0.00,,,0.01,Wunderground v.1.15,2013-01-12 08:10:00,
2013-01-12 03:20:00,60.9,58.6,30.13,West,275,0.0,0.0,92,0.00,,,0.01,Wunderground v.1.15,2013-01-12 08:20:00,
2013-01-12 03:30:00,60.8,58.5,30.13,West,259,0.0,0.0,92,0.00,,,0.01,Wunderground v.1.15,2013-01-12 08:30:00,
2013-01-12 03:40:00,60.6,58.3,30.13,West,261,0.0,1.0,92,0.00,,,0.01,Wunderground v.1.15,2013-01-12 08:40:00,
2013-01-12 03:50:00,60.5,58.2,30.12,WSW,256,1.0,1.0,92,0.00,,,0.01,Wunderground v.1.15,2013-01-12 08:50:00,
2013-01-12 04:00:00,60.3,58.0,30.12,WSW,237,1.0,1.0,92,0.00,,,0.01,Wunderground v.1.15,2013-01-12 09:00:00,
2013-01-12 04:10:00,60.2,57.9,30.12,West,267,1.0,1.0,92,0.00,,,0.01,Wunderground v.1.15,2013-01-12 09:10:00,
2013-01-12 04:20:00,60.2,57.9,30.11,West,261,1.0,1.0,92,0.00,,,0.01,Wunderground v.1.15,2013-01-12 09:20:00,
2013-01-12 04:30:00,60.2,57.9,30.11,West,277,1.0,1.0,92,0.00,,,0.01,Wunderground v.1.15,2013-01-12 09:30:00,
2013-01-12 04:40:00,60.2,57.9,30.11,WSW,245,0.0,0.0,92,0.00,,,0.01,Wunderground v.1.15,2013-01-12 09:40:00,
2013-01-12 04:50:00,60.4,58.1,30.11,WSW,252,0.0,0.0,92,0.00,,,0.01,Wunderground v.1.15,2013-01-12 09:50:00,
2013-01-12 05:00:00,60.4,58.1,30.11,West,259,0.0,0.0,92,0.00,,,0.01,Wunderground v.1.15,2013-01-12 10:00:00,
2013-01-12 05:10:00,60.5,58.2,30.11,WSW,256,0.0,0.0,92,0.00,,,0.01,Wunderground v.1.15,2013-01-12 10:10:00,
2013-01-12 05:20:00,60.3,58.0,30.11,West,260,0.0,0.0,92,0.00,,,0.01,Wunderground v.1.15,2013-01-12 10:20:00,
2013-01-12 05:30:00,60.3,58.0,30.12,WSW,250,0.0,0.0,92,0.00,,,0.01,Wunderground v.1.15,2013-01-12 10:30:00,
2013-01-12 05:40:00,60.3,58.0,30.12,WSW,257,0.0,0.0,92,0.00,,,0.01,Wunderground v.1.15,2013-01-12 10:40:00,
2013-01-12 05:50:00,60.3,58.0,30.12,WSW,257,0.0,0.0,92,0.00,,,0.01,Wunderground v.1.15,2013-01-12 10:50:00,
2013-01-12 06:00:00,60.2,57.9,30.12,SW,222,0.0,0.0,92,0.00,,,0.01,Wunderground v.1.15,2013-01-12 11:00:00,
2013-01-12 06:10:00,60.1,57.8,30.12,West,265,0.0,0.0,92,0.00,,,0.01,Wunderground v.1.15,2013-01-12 11:10:00,
2013-01-12 06:20:00,60.3,58.0,30.12,West,259,0.0,0.0,92,0.00,,,0.01,Wunderground v.1.15,2013-01-12 11:20:00,
2013-01-12 06:30:00,60.3,58.0,30.12,WSW,254,0.0,0.0,92,0.00,,,0.01,Wunderground v.1.15,2013-01-12 11:30:00,
2013-01-12 06:40:00,60.2,57.9,30.12,WSW,254,0.0,0.0,92,0.00,,,0.01,Wunderground v.1.15,2013-01-12 11:40:00,
2013-01-12 06:50:00,60.0,57.7,30.13,WSW,254,0.0,0.0,92,0.00,,,0.01,Wunderground v.1.15,2013-01-12 11:50:00,
2013-01-12 07:00:00,59.8,57.5,30.13,WSW,257,0.0,0.0,92,0.00,,,0.01,Wunderground v.1.15,2013-01-12 12:00:00,
2013-01-12 07:10:00,59.6,57.3,30.13,WSW,257,0.0,0.0,92,0.00,,,0.01,Wunderground v.1.15,2013-01-12 12:10:00,
2013-01-12 07:20:00,59.6,57.3,30.14,WSW,257,0.0,0.0,92,0.00,,,0.01,Wunderground v.1.15,2013-01-12 12:20:00,
2013-01-12 07:30:00,59.6,57.3,30.14,WSW,257,0.0,0.0,92,0.00,,,0.01,Wunderground v.1.15,2013-01-12 12:30:00,
2013-01-12 07:40:00,59.3,57.3,30.14,West,261,0.0,0.0,93,0.00,,,0.01,Wunderground v.1.15,2013-01-12 12:40:00,
2013-01-12 07:50:00,59.0,57.0,30.14,SSW,204,0.0,0.0,93,0.00,,,0.01,Wunderground v.1.15,2013-01-12 12:50:00,
2013-01-12 08:00:00,58.6,56.6,30.14,SSW,203,0.0,0.0,93,0.00,,,0.01,Wunderground v.1.15,2013-01-12 13:00:00,
2013-01-12 08:10:00,59.0,56.7,30.14,SSW,203,0.0,0.0,92,0.00,,,0.01,Wunderground v.1.15,2013-01-12 13:10:00,
2013-01-12 08:21:00,59.3,57.0,30.14,SSW,203,0.0,0.0,92,0.00,,,0.01,Wunderground v.1.15,2013-01-12 13:21:00,
2013-01-12 08:30:00,60.0,57.7,30.15,SSW,203,0.0,0.0,92,0.00,,,0.01,Wunderground v.1.15,2013-01-12 13:30:00,
2013-01-12 08:40:00,60.7,58.4,30.15,West,261,0.0,0.0,92,0.00,,,0.01,Wunderground v.1.15,2013-01-12 13:40:00,
2013-01-12 08:50:00,61.3,59.0,30.15,West,262,0.0,0.0,92,0.00,,,0.01,Wunderground v.1.15,2013-01-12 13:50:00,
2013-01-12 09:00:00,62.1,59.7,30.15,South,191,0.0,0.0,92,0.00,,,0.01,Wunderground v.1.15,2013-01-12 14:00:00,
2013-01-12 09:10:00,60.8,59.4,30.15,SSW,195,1.0,2.0,95,0.00,,,0.01,Wunderground v.1.15,2013-01-12 14:10:00,
2013-01-12 09:20:00,61.0,59.0,30.16,SSW,200,1.0,1.0,93,0.00,,,0.01,Wunderground v.1.15,2013-01-12 14:20:00,
2013-01-12 09:30:00,61.7,59.7,30.16,SSW,203,0.0,0.0,93,0.00,,,0.01,Wunderground v.1.15,2013-01-12 14:30:00,
2013-01-12 09:40:00,63.3,60.9,30.16,WSW,254,0.0,0.0,92,0.00,,,0.01,Wunderground v.1.15,2013-01-12 14:40:00,
2013-01-12 09:50:00,64.2,62.1,30.16,WSW,258,0.0,0.0,93,0.00,,,0.01,Wunderground v.1.15,2013-01-12 14:50:00,
2013-01-12 10:00:00,64.9,63.1,30.16,West,264,0.0,0.0,94,0.00,,,0.01,Wunderground v.1.15,2013-01-12 15:00:00,
2013-01-12 10:10:00,65.4,63.6,30.16,West,264,0.0,0.0,94,0.00,,,0.01,Wunderground v.1.15,2013-01-12 15:10:00,
2013-01-12 10:21:00,65.9,64.1,30.16,WSW,238,0.0,0.0,94,0.00,,,0.01,Wunderground v.1.15,2013-01-12 15:21:00,
2013-01-12 10:30:00,65.8,64.0,30.16,WSW,254,0.0,0.0,94,0.00,,,0.01,Wunderground v.1.15,2013-01-12 15:30:00,
2013-01-12 10:40:00,66.2,64.4,30.16,WSW,243,0.0,0.0,94,0.00,,,0.01,Wunderground v.1.15,2013-01-12 15:40:00,
2013-01-12 10:50:00,66.4,64.6,30.15,West,271,0.0,0.0,94,0.00,,,0.01,Wunderground v.1.15,2013-01-12 15:50:00,
2013-01-12 11:00:00,67.1,65.3,30.14,WSW,256,0.0,0.0,94,0.00,,,0.01,Wunderground v.1.15,2013-01-12 16:00:00,
2013-01-12 11:10:00,67.4,65.6,30.14,West,261,0.0,1.0,94,0.00,,,0.01,Wunderground v.1.15,2013-01-12 16:10:00,
2013-01-12 11:20:00,65.5,62.5,30.14,SSW,200,1.0,5.0,90,0.00,,,0.01,Wunderground v.1.15,2013-01-12 16:20:00,
2013-01-12 11:30:00,62.0,59.6,30.12,SSW,205,4.0,5.0,92,0.00,,,0.01,Wunderground v.1.15,2013-01-12 16:30:00,
2013-01-12 11:40:00,59.4,57.1,30.12,SSW,198,4.0,4.0,92,0.00,,,0.01,Wunderground v.1.15,2013-01-12 16:40:00,
2013-01-12 11:50:00,58.5,56.8,30.12,SSW,196,5.0,5.0,94,0.00,,,0.01,Wunderground v.1.15,2013-01-12 16:50:00,
2013-01-12 12:00:00,58.8,57.4,30.11,SSW,194,5.0,5.0,95,0.00,,,0.01,Wunderground v.1.15,2013-01-12 17:00:00,
2013-01-12 12:10:00,59.4,58.0,30.11,SW,221,3.0,3.0,95,0.00,,,0.01,Wunderground v.1.15,2013-01-12 17:10:00,
2013-01-12 12:21:00,59.8,58.4,30.11,SSW,199,2.0,2.0,95,0.00,,,0.01,Wunderground v.1.15,2013-01-12 17:21:00,
2013-01-12 12:30:00,59.7,58.0,30.10,SW,214,2.0,2.0,94,0.00,,,0.01,Wunderground v.1.15,2013-01-12 17:30:00,
2013-01-12 12:41:00,58.5,56.8,30.10,South,190,3.0,4.0,94,0.00,,,0.01,Wunderground v.1.15,2013-01-12 17:41:00,
2013-01-12 12:50:00,58.7,57.3,30.10,SSW,193,3.0,4.0,95,0.00,,,0.01,Wunderground v.1.15,2013-01-12 17:50:00,
2013-01-12 13:00:00,59.3,57.9,30.10,SSW,207,4.0,4.0,95,0.00,,,0.01,Wunderground v.1.15,2013-01-12 18:00:00,
2013-01-12 13:10:00,58.9,57.2,30.10,South,191,4.0,4.0,94,0.00,,,0.01,Wunderground v.1.15,2013-01-12 18:10:00,
2013-01-12 13:20:00,59.0,57.6,30.09,SSW,213,4.0,4.0,95,0.00,,,0.01,Wunderground v.1.15,2013-01-12 18:20:00,
2013-01-12 13:30:00,58.7,57.0,30.09,South,186,4.0,6.0,94,0.00,,,0.01,Wunderground v.1.15,2013-01-12 18:30:00,
2013-01-12 13:40:00,59.5,58.1,30.09,SSE,168,3.0,3.0,95,0.00,,,0.01,Wunderground v.1.15,2013-01-12 18:40:00,
2013-01-12 13:50:00,59.6,57.9,30.09,SSE,167,4.0,5.0,94,0.00,,,0.01,Wunderground v.1.15,2013-01-12 18:50:00,
2013-01-12 14:00:00,60.1,58.7,30.08,SSW,195,5.0,6.0,95,0.00,,,0.01,Wunderground v.1.15,2013-01-12 19:00:00,
2013-01-12 14:10:00,59.6,57.9,30.08,South,186,6.0,8.0,94,0.00,,,0.01,Wunderground v.1.15,2013-01-12 19:10:00,
2013-01-12 14:20:00,59.1,57.4,30.08,SSW,195,6.0,6.0,94,0.00,,,0.01,Wunderground v.1.15,2013-01-12 19:20:00,
2013-01-12 14:30:00,59.2,57.8,30.08,SSW,203,5.0,6.0,95,0.00,,,0.01,Wunderground v.1.15,2013-01-12 19:30:00,
2013-01-12 14:41:00,59.2,57.8,30.08,SSW,194,5.0,5.0,95,0.00,,,0.01,Wunderground v.1.15,2013-01-12 19:41:00,
2013-01-12 14:50:00,59.1,57.7,30.08,South,190,5.0,5.0,95,0.00,,,0.01,Wunderground v.1.15,2013-01-12 19:50:00,
2013-01-12 15:01:00,59.7,58.3,30.08,SSW,205,5.0,6.0,95,0.00,,,0.01,Wunderground v.1.15,2013-01-12 20:01:00,
2013-01-12 15:11:00,61.1,59.4,30.08,SSW,203,5.0,5.0,94,0.00,,,0.01,Wunderground v.1.15,2013-01-12 20:11:00,
2013-01-12 15:20:00,60.7,59.0,30.08,SSE,160,4.0,4.0,94,0.00,,,0.01,Wunderground v.1.15,2013-01-12 20:20:00,
2013-01-12 15:30:00,60.0,58.3,30.09,SSE,165,2.0,2.0,94,0.00,,,0.01,Wunderground v.1.15,2013-01-12 20:30:00,
2013-01-12 15:40:00,59.7,58.0,30.09,ENE,75,2.0,2.0,94,0.00,,,0.01,Wunderground v.1.15,2013-01-12 20:40:00,
2013-01-12 15:51:00,59.7,58.0,30.09,NE,49,2.0,4.0,94,0.00,,,0.01,Wunderground v.1.15,2013-01-12 20:51:00,
2013-01-12 16:00:00,59.8,58.4,30.10,NNE,21,4.0,4.0,95,0.00,,,0.01,Wunderground v.1.15,2013-01-12 21:00:00,
2013-01-12 16:10:00,60.0,58.6,30.10,NE,55,3.0,3.0,95,0.00,,,0.01,Wunderground v.1.15,2013-01-12 21:10:00,
2013-01-12 16:20:00,59.4,58.0,30.11,NNE,29,2.0,2.0,95,0.00,,,0.01,Wunderground v.1.15,2013-01-12 21:20:00,
2013-01-12 16:30:00,59.4,58.0,30.11,NE,49,2.0,2.0,95,0.00,,,0.01,Wunderground v.1.15,2013-01-12 21:30:00,
2013-01-12 16:40:00,59.0,57.6,30.11,NE,49,2.0,2.0,95,0.00,,,0.01,Wunderground v.1.15,2013-01-12 21:40:00,
2013-01-12 16:51:00,58.6,57.2,30.11,NE,49,1.0,1.0,95,0.00,,,0.01,Wunderground v.1.15,2013-01-12 21:51:00,
2013-01-12 17:00:00,58.6,57.2,30.11,NE,46,0.0,0.0,95,0.00,,,0.01,Wunderground v.1.15,2013-01-12 22:00:00,
2013-01-12 17:10:00,58.2,56.8,30.11,NE,43,2.0,2.0,95,0.00,,,0.01,Wunderground v.1.15,2013-01-12 22:10:00,
2013-01-12 17:20:00,57.5,56.1,30.11,NE,55,2.0,2.0,95,0.00,,,0.01,Wunderground v.1.15,2013-01-12 22:20:00,
2013-01-12 17:31:00,57.4,56.0,30.11,ENE,62,2.0,2.0,95,0.00,,,0.01,Wunderground v.1.15,2013-01-12 22:31:00,
2013-01-12 17:40:00,57.2,55.8,30.11,NE,52,2.0,2.0,95,0.00,,,0.01,Wunderground v.1.15,2013-01-12 22:40:00,
2013-01-12 17:51:00,57.6,55.9,30.11,NE,38,0.0,0.0,94,0.00,,,0.01,Wunderground v.1.15,2013-01-12 22:51:00,
2013-01-12 18:00:00,58.1,56.4,30.11,NE,46,0.0,0.0,94,0.00,,,0.01,Wunderground v.1.15,2013-01-12 23:00:00,
2013-01-12 18:10:00,58.2,56.5,30.11,NE,35,0.0,0.0,94,0.00,,,0.01,Wunderground v.1.15,2013-01-12 23:10:00,
2013-01-12 18:21:00,58.3,56.6,30.11,NE,35,0.0,0.0,94,0.00,,,0.01,Wunderground v.1.15,2013-01-12 23:21:00,
2013-01-12 18:30:00,58.3,56.6,30.11,NNE,33,0.0,0.0,94,0.00,,,0.01,Wunderground v.1.15,2013-01-12 23:30:00,
2013-01-12 18:41:00,58.2,56.5,30.11,NE,35,0.0,0.0,94,0.00,,,0.01,Wunderground v.1.15,2013-01-12 23:41:00,
2013-01-12 18:50:00,58.4,56.7,30.11,NE,35,0.0,0.0,94,0.00,,,0.01,Wunderground v.1.15,2013-01-12 23:50:00,
2013-01-12 19:00:00,58.5,56.8,30.12,NNE,28,0.0,0.0,94,0.00,,,0.01,Wunderground v.1.15,2013-01-13 00:00:00,
2013-01-12 19:10:00,58.7,57.0,30.12,NE,38,0.0,0.0,94,0.00,,,0.01,Wunderground v.1.15,2013-01-13 00:10:00,
2013-01-12 19:20:00,58.6,56.9,30.11,NNE,30,0.0,0.0,94,0.00,,,0.01,Wunderground v.1.15,2013-01-13 00:20:00,
2013-01-12 19:31:00,58.6,56.9,30.11,NNE,32,0.0,0.0,94,0.00,,,0.01,Wunderground v.1.15,2013-01-13 00:31:00,
2013-01-12 19:40:00,58.5,56.8,30.11,NNE,29,0.0,0.0,94,0.00,,,0.01,Wunderground v.1.15,2013-01-13 00:40:00,
2013-01-12 19:51:00,58.4,56.7,30.11,NE,37,0.0,0.0,94,0.00,,,0.01,Wunderground v.1.15,2013-01-13 00:51:00,
2013-01-12 20:01:00,58.5,56.8,30.11,NE,35,0.0,0.0,94,0.00,,,0.01,Wunderground v.1.15,2013-01-13 01:01:00,
2013-01-12 20:10:00,58.7,56.7,30.11,NNE,24,0.0,0.0,93,0.00,,,0.01,Wunderground v.1.15,2013-01-13 01:10:00,
2013-01-12 20:21:00,58.6,56.9,30.10,NNE,20,0.0,0.0,94,0.00,,,0.01,Wunderground v.1.15,2013-01-13 01:21:00,
2013-01-12 20:30:00,58.7,56.7,30.11,NNE,23,0.0,3.0,93,0.00,,,0.01,Wunderground v.1.15,2013-01-13 01:30:00,
2013-01-12 20:41:00,58.7,56.7,30.11,NNE,28,3.0,4.0,93,0.00,,,0.01,Wunderground v.1.15,2013-01-13 01:41:00,
2013-01-12 20:50:00,58.5,56.8,30.11,NNE,32,3.0,4.0,94,0.00,,,0.01,Wunderground v.1.15,2013-01-13 01:50:00,
2013-01-12 21:01:00,58.2,56.5,30.10,NE,44,3.0,3.0,94,0.00,,,0.01,Wunderground v.1.15,2013-01-13 02:01:00,
2013-01-12 21:11:00,57.5,55.8,30.10,NE,46,3.0,3.0,94,0.00,,,0.01,Wunderground v.1.15,2013-01-13 02:11:00,
2013-01-12 21:20:00,56.9,55.2,30.11,NE,38,3.0,3.0,94,0.00,,,0.01,Wunderground v.1.15,2013-01-13 02:20:00,
2013-01-12 21:31:00,57.0,55.0,30.11,NNW,347,2.0,2.0,93,0.00,,,0.01,Wunderground v.1.15,2013-01-13 02:31:00,
2013-01-12 21:40:00,57.0,55.0,30.11,NE,44,2.0,2.0,93,0.00,,,0.01,Wunderground v.1.15,2013-01-13 02:40:00,
2013-01-12 21:51:00,56.9,54.9,30.11,NE,39,2.0,2.0,93,0.00,,,0.01,Wunderground v.1.15,2013-01-13 02:51:00,
2013-01-12 22:00:00,57.0,55.0,30.11,NE,35,2.0,2.0,93,0.00,,,0.01,Wunderground v.1.15,2013-01-13 03:00:00,
2013-01-12 22:10:00,57.0,55.0,30.11,NE,44,2.0,3.0,93,0.00,,,0.01,Wunderground v.1.15,2013-01-13 03:10:00,
2013-01-12 22:21:00,56.9,54.9,30.10,NNE,32,2.0,2.0,93,0.00,,,0.01,Wunderground v.1.15,2013-01-13 03:21:00,
2013-01-12 22:31:00,57.0,55.0,30.10,NE,35,2.0,2.0,93,0.00,,,0.01,Wunderground v.1.15,2013-01-13 03:31:00,
2013-01-12 22:40:00,56.9,54.9,30.10,North,5,3.0,3.0,93,0.00,,,0.01,Wunderground v.1.15,2013-01-13 03:40:00,
2013-01-12 22:51:00,57.1,55.1,30.11,NE,38,2.0,3.0,93,0.00,,,0.01,Wunderground v.1.15,2013-01-13 03:51:00,
2013-01-12 23:00:00,57.2,55.2,30.11,NNE,31,2.0,3.0,93,0.00,,,0.01,Wunderground v.1.15,2013-01-13 04:00:00,
2013-01-12 23:10:00,57.2,55.2,30.11,NE,42,3.0,3.0,93,0.00,,,0.01,Wunderground v.1.15,2013-01-13 04:10:00,
2013-01-12 23:21:00,56.7,54.7,30.11,NE,44,3.0,3.0,93,0.00,,,0.01,Wunderground v.1.15,2013-01-13 04:21:00,
2013-01-12 23:31:00,56.4,54.4,30.11,NE,47,3.0,4.0,93,0.00,,,0.01,Wunderground v.1.15,2013-01-13 04:31:00,
2013-01-12 23:41:00,56.1,54.1,30.11,NE,35,4.0,4.0,93,0.00,,,0.01,Wunderground v.1.15,2013-01-13 04:41:00,
2013-01-12 23:51:00,56.1,54.1,30.10,NE,40,4.0,4.0,93,0.00,,,0.01,Wunderground v.1.15,2013-01-13 04:51:00,